createdAt,value
2019-02-27T05:00:59.276Z,3.74
2019-02-27T05:01:56.963Z,3.74
2019-02-27T05:03:49.631Z,3.71
2019-02-27T05:04:49.527Z,3.78
2019-02-27T05:06:42.202Z,3.72
2019-02-27T05:07:42.078Z,3.75
2019-02-27T05:09:34.724Z,3.84
2019-02-27T05:10:34.615Z,3.76
2019-02-27T05:12:27.281Z,3.84
2019-02-27T05:13:27.162Z,3.72
2019-02-27T05:15:19.814Z,3.72
2019-02-27T05:16:19.699Z,3.66
2019-02-27T05:18:12.377Z,3.69
2019-02-27T05:19:12.245Z,3.66
2019-02-27T05:21:04.911Z,3.67
2019-02-27T05:22:04.791Z,3.64
2019-02-27T05:23:57.465Z,3.67
2019-02-27T05:24:57.327Z,3.63
2019-02-27T05:26:50.016Z,3.67
2019-02-27T05:27:49.873Z,3.67
2019-02-27T05:29:42.555Z,3.72
2019-02-27T05:30:44.716Z,3.71
2019-02-27T05:32:35.103Z,3.67
2019-02-27T05:33:36.053Z,3.71
2019-02-27T05:35:27.617Z,3.64
2019-02-27T05:36:28.987Z,3.57
2019-02-27T05:38:20.178Z,3.61
2019-02-27T05:39:20.042Z,3.64
2019-02-27T05:41:12.722Z,3.54
2019-02-27T05:42:13.227Z,3.56
2019-02-27T05:44:05.263Z,3.58
2019-02-27T05:45:05.137Z,3.63
2019-02-27T05:46:57.790Z,3.66
2019-02-27T05:47:57.679Z,3.57
2019-02-27T05:49:50.352Z,3.56
2019-02-27T05:50:50.218Z,3.60
2019-02-27T05:52:42.875Z,3.58
2019-02-27T05:53:42.770Z,3.67
2019-02-27T05:55:39.022Z,3.74
2019-02-27T05:56:35.323Z,3.66
2019-02-27T05:58:27.978Z,3.71
2019-02-27T05:59:29.454Z,3.63
2019-02-27T06:01:20.534Z,3.57
2019-02-27T06:02:20.408Z,3.69
2019-02-27T06:04:13.073Z,3.76
2019-02-27T06:05:12.952Z,3.61
2019-02-27T06:07:05.636Z,3.71
2019-02-27T06:08:05.500Z,3.75
2019-02-27T06:09:58.814Z,3.72
2019-02-27T06:10:58.314Z,3.71
2019-02-27T06:12:50.820Z,3.60
2019-02-27T06:13:50.690Z,3.57
2019-02-27T06:15:43.352Z,3.56
2019-02-27T06:16:43.282Z,3.54
2019-02-27T06:18:35.918Z,3.56
2019-02-27T06:19:35.770Z,3.51
2019-02-27T06:21:28.431Z,3.42
2019-02-27T06:22:30.542Z,3.53
2019-02-27T06:24:21.647Z,3.49
2019-02-27T06:25:23.201Z,3.51
2019-02-27T06:27:13.530Z,3.56
2019-02-27T06:28:13.403Z,3.56
2019-02-27T06:30:06.079Z,3.54
2019-02-27T06:31:05.946Z,3.58
2019-02-27T06:32:58.610Z,3.64
2019-02-27T06:33:59.061Z,3.57
2019-02-27T06:35:51.166Z,3.58
2019-02-27T06:36:51.034Z,3.56
2019-02-27T06:38:43.711Z,3.57
2019-02-27T06:39:43.581Z,3.60
2019-02-27T06:41:36.245Z,3.63
2019-02-27T06:42:36.134Z,3.67
2019-02-27T06:44:28.811Z,3.71
2019-02-27T06:45:28.673Z,3.67
2019-02-27T06:47:21.329Z,3.72
2019-02-27T06:48:21.217Z,3.74
2019-02-27T06:50:13.891Z,3.69
2019-02-27T06:51:13.763Z,3.56
2019-02-27T06:53:06.422Z,3.66
2019-02-27T06:54:06.314Z,3.58
2019-02-27T06:56:02.781Z,3.58
2019-02-27T06:56:58.882Z,3.66
2019-02-27T06:58:51.545Z,3.78
2019-02-27T06:59:51.428Z,3.69
2019-02-27T07:01:45.142Z,3.84
2019-02-27T07:02:43.979Z,3.78
2019-02-27T07:04:39.637Z,3.81
2019-02-27T07:05:36.522Z,3.81
2019-02-27T07:07:31.274Z,3.79
2019-02-27T07:08:29.067Z,3.84
2019-02-27T07:10:21.731Z,4.03
2019-02-27T07:11:21.614Z,3.96
2019-02-27T07:13:14.300Z,4.07
2019-02-27T07:14:14.166Z,4.10
2019-02-27T07:16:06.820Z,4.12
2019-02-27T07:17:06.702Z,4.20
2019-02-27T07:18:59.382Z,4.29
2019-02-27T07:19:59.248Z,4.24
2019-02-27T07:21:51.920Z,4.22
2019-02-27T07:22:51.802Z,4.28
2019-02-27T07:24:44.477Z,4.36
2019-02-27T07:25:44.356Z,4.39
2019-02-27T07:27:37.046Z,4.40
2019-02-27T07:28:36.896Z,4.42
2019-02-27T07:30:29.581Z,4.42
2019-02-27T07:31:29.476Z,4.53
2019-02-27T07:33:22.156Z,4.53
2019-02-27T07:34:22.004Z,4.65
2019-02-27T07:36:14.670Z,4.58
2019-02-27T07:37:14.590Z,4.61
2019-02-27T07:39:07.241Z,4.57
2019-02-27T07:40:08.588Z,4.71
2019-02-27T07:41:59.784Z,4.84
2019-02-27T07:42:59.674Z,4.90
2019-02-27T07:44:52.433Z,4.98
2019-02-27T07:45:54.259Z,5.02
2019-02-27T07:47:45.000Z,4.92
2019-02-27T07:48:44.860Z,4.98
2019-02-27T07:50:37.538Z,5.00
2019-02-27T07:51:37.412Z,5.02
2019-02-27T07:53:30.075Z,5.02
2019-02-27T07:54:29.963Z,5.15
2019-02-27T07:56:22.640Z,5.15
2019-02-27T07:57:22.514Z,5.23
2019-02-27T07:59:15.165Z,5.33
2019-02-27T08:00:15.701Z,5.33
2019-02-27T08:02:07.732Z,5.44
2019-02-27T08:03:09.864Z,5.39
2019-02-27T08:05:00.271Z,5.60
2019-02-27T08:06:02.429Z,5.66
2019-02-27T08:07:52.827Z,5.87
2019-02-27T08:08:56.942Z,5.82
2019-02-27T08:10:45.408Z,5.89
2019-02-27T08:11:47.315Z,6.05
2019-02-27T08:13:37.904Z,5.95
2019-02-27T08:14:37.938Z,6.03
2019-02-27T08:16:30.471Z,6.18
2019-02-27T08:17:30.339Z,6.24
2019-02-27T08:19:23.016Z,6.34
2019-02-27T08:20:22.904Z,6.43
2019-02-27T08:22:15.580Z,6.55
2019-02-27T08:23:15.676Z,6.51
2019-02-27T08:25:08.111Z,6.65
2019-02-27T08:26:07.999Z,6.86
2019-02-27T08:28:00.734Z,7.03
2019-02-27T08:29:00.540Z,7.08
2019-02-27T08:30:53.221Z,7.23
2019-02-27T08:31:53.090Z,7.31
2019-02-27T08:33:45.791Z,7.44
2019-02-27T08:34:45.667Z,7.52
2019-02-27T08:36:38.437Z,7.71
2019-02-27T08:37:38.311Z,7.75
2019-02-27T08:39:30.979Z,7.86
2019-02-27T08:40:30.888Z,7.78
2019-02-27T08:42:23.550Z,7.96
2019-02-27T08:43:23.422Z,7.93
2019-02-27T08:45:19.605Z,8.07
2019-02-27T08:46:15.974Z,8.10
2019-02-27T08:48:08.812Z,8.29
2019-02-27T08:49:08.520Z,8.29
2019-02-27T08:51:05.709Z,8.46
2019-02-27T08:52:01.073Z,8.46
2019-02-27T08:53:53.749Z,8.58
2019-02-27T08:54:53.625Z,8.64
2019-02-27T08:56:47.211Z,8.71
2019-02-27T08:57:46.172Z,8.79
2019-02-27T08:59:39.812Z,8.85
2019-02-27T09:00:38.710Z,8.92
2019-02-27T09:02:31.383Z,9.00
2019-02-27T09:03:31.267Z,9.03
2019-02-27T09:05:23.952Z,9.09
2019-02-27T09:06:27.350Z,9.20
2019-02-27T09:08:16.643Z,9.42
2019-02-27T09:09:17.953Z,9.52
2019-02-27T09:11:09.209Z,9.59
2019-02-27T09:12:13.108Z,9.48
2019-02-27T09:14:01.757Z,9.77
2019-02-27T09:15:01.470Z,9.81
2019-02-27T09:16:54.133Z,9.85
2019-02-27T09:17:54.024Z,9.92
2019-02-27T09:19:46.856Z,10.10
2019-02-27T09:20:46.576Z,10.17
2019-02-27T09:22:39.233Z,10.17
2019-02-27T09:23:39.124Z,10.25
2019-02-27T09:25:31.864Z,10.31
2019-02-27T09:26:36.096Z,10.39
2019-02-27T09:28:24.348Z,10.33
2019-02-27T09:29:24.239Z,10.36
2019-02-27T09:31:17.075Z,10.41
2019-02-27T09:32:16.789Z,10.51
2019-02-27T09:34:09.664Z,10.67
2019-02-27T09:35:09.346Z,10.70
2019-02-27T09:37:02.007Z,10.83
2019-02-27T09:38:01.903Z,10.87
2019-02-27T09:39:54.586Z,11.05
2019-02-27T09:40:54.455Z,11.13
2019-02-27T09:42:47.121Z,11.27
2019-02-27T09:43:47.011Z,11.34
2019-02-27T09:45:39.853Z,11.52
2019-02-27T09:46:39.566Z,11.63
2019-02-27T09:48:33.489Z,11.75
2019-02-27T09:49:32.122Z,11.79
2019-02-27T09:51:24.805Z,11.95
2019-02-27T09:52:24.679Z,11.97
2019-02-27T09:54:17.522Z,12.04
2019-02-27T09:55:20.188Z,12.18
2019-02-27T09:57:09.897Z,12.18
2019-02-27T09:58:11.165Z,12.10
2019-02-27T10:00:03.021Z,12.20
2019-02-27T10:01:03.172Z,12.26
2019-02-27T10:02:55.012Z,12.33
2019-02-27T10:03:55.546Z,12.29
2019-02-27T10:05:47.928Z,12.31
2019-02-27T10:06:47.459Z,12.38
2019-02-27T10:08:40.541Z,12.45
2019-02-27T10:09:40.435Z,12.59
2019-02-27T10:11:32.706Z,12.62
2019-02-27T10:12:32.576Z,12.80
2019-02-27T10:14:25.241Z,12.84
2019-02-27T10:15:25.917Z,12.84
2019-02-27T10:17:17.844Z,12.89
2019-02-27T10:18:18.963Z,12.94
2019-02-27T10:20:10.567Z,13.10
2019-02-27T10:21:12.053Z,13.16
2019-02-27T10:23:02.945Z,13.21
2019-02-27T10:24:04.787Z,13.24
2019-02-27T10:25:55.669Z,13.31
2019-02-27T10:26:55.381Z,13.35
2019-02-27T10:28:48.056Z,13.51
2019-02-27T10:29:48.511Z,13.58
2019-02-27T10:31:40.698Z,13.54
2019-02-27T10:32:40.504Z,13.63
2019-02-27T10:34:33.168Z,13.62
2019-02-27T10:35:34.740Z,13.70
2019-02-27T10:37:25.778Z,13.75
2019-02-27T10:38:26.297Z,13.91
2019-02-27T10:40:18.300Z,13.95
2019-02-27T10:41:18.187Z,14.02
2019-02-27T10:43:10.872Z,14.12
2019-02-27T10:44:10.751Z,14.19
2019-02-27T10:46:03.445Z,14.27
2019-02-27T10:47:03.326Z,14.39
2019-02-27T10:48:56.016Z,14.61
2019-02-27T10:49:55.889Z,14.75
2019-02-27T10:51:48.577Z,14.83
2019-02-27T10:52:50.015Z,14.83
2019-02-27T10:54:41.137Z,14.85
2019-02-27T10:55:41.014Z,14.83
2019-02-27T10:57:38.193Z,14.80
2019-02-27T10:58:33.570Z,14.75
2019-02-27T11:00:26.275Z,14.93
2019-02-27T11:01:26.140Z,15.00
2019-02-27T11:03:18.800Z,15.19
2019-02-27T11:04:18.694Z,15.22
2019-02-27T11:06:11.636Z,15.20
2019-02-27T11:07:13.195Z,15.19
2019-02-27T11:09:04.649Z,15.12
2019-02-27T11:10:03.817Z,15.30
2019-02-27T11:11:56.663Z,15.23
2019-02-27T11:12:56.378Z,15.35
2019-02-27T11:14:49.091Z,15.35
2019-02-27T11:15:48.974Z,15.38
2019-02-27T11:17:41.667Z,15.51
2019-02-27T11:18:42.805Z,15.49
2019-02-27T11:20:34.239Z,15.59
2019-02-27T11:21:34.106Z,15.59
2019-02-27T11:23:26.776Z,15.62
2019-02-27T11:24:26.666Z,15.70
2019-02-27T11:26:19.354Z,15.77
2019-02-27T11:27:19.297Z,15.75
2019-02-27T11:29:12.057Z,15.91
2019-02-27T11:30:11.795Z,15.89
2019-02-27T11:32:04.495Z,15.91
2019-02-27T11:33:04.372Z,15.88
2019-02-27T11:34:57.195Z,15.93
2019-02-27T11:35:56.938Z,15.99
2019-02-27T11:37:49.627Z,16.02
2019-02-27T11:38:49.497Z,16.14
2019-02-27T11:40:42.939Z,16.21
2019-02-27T11:41:42.059Z,16.22
2019-02-27T11:43:34.752Z,16.36
2019-02-27T11:44:34.633Z,16.32
2019-02-27T11:46:27.314Z,16.42
2019-02-27T11:47:27.190Z,16.45
2019-02-27T11:49:19.881Z,16.48
2019-02-27T11:50:19.760Z,16.65
2019-02-27T11:52:12.929Z,16.65
2019-02-27T11:53:12.807Z,16.72
2019-02-27T11:55:05.501Z,16.81
2019-02-27T11:56:05.382Z,16.73
2019-02-27T11:57:58.053Z,16.76
2019-02-27T11:58:57.953Z,16.73
2019-02-27T12:00:50.674Z,16.74
2019-02-27T12:01:50.516Z,16.70
2019-02-27T12:03:45.765Z,16.81
2019-02-27T12:04:43.112Z,16.88
2019-02-27T12:06:35.957Z,17.02
2019-02-27T12:07:35.679Z,17.00
2019-02-27T12:09:28.410Z,17.07
2019-02-27T12:10:28.297Z,17.10
2019-02-27T12:12:23.970Z,17.09
2019-02-27T12:13:21.761Z,17.17
2019-02-27T12:15:14.446Z,17.24
2019-02-27T12:16:17.511Z,17.22
2019-02-27T12:18:06.999Z,17.35
2019-02-27T12:19:08.736Z,17.30
2019-02-27T12:20:59.600Z,17.35
2019-02-27T12:22:00.231Z,17.35
2019-02-27T12:23:52.142Z,17.12
2019-02-27T12:24:52.858Z,17.10
2019-02-27T12:26:44.737Z,17.17
2019-02-27T12:27:49.270Z,17.20
2019-02-27T12:29:37.443Z,17.17
2019-02-27T12:30:37.925Z,17.20
2019-02-27T12:32:29.882Z,17.28
2019-02-27T12:33:29.971Z,17.31
2019-02-27T12:35:22.438Z,17.39
2019-02-27T12:36:22.340Z,17.40
2019-02-27T12:38:15.027Z,17.49
2019-02-27T12:39:15.618Z,17.54
2019-02-27T12:41:07.574Z,17.46
2019-02-27T12:42:07.840Z,17.54
2019-02-27T12:44:00.315Z,17.52
2019-02-27T12:45:00.044Z,17.71
2019-02-27T12:46:52.739Z,17.86
2019-02-27T12:47:52.616Z,17.92
2019-02-27T12:49:45.294Z,17.90
2019-02-27T12:50:45.188Z,17.99
2019-02-27T12:52:37.879Z,17.87
2019-02-27T12:53:37.755Z,17.99
2019-02-27T12:55:33.152Z,17.99
2019-02-27T12:56:30.344Z,18.01
2019-02-27T12:58:24.316Z,18.01
2019-02-27T12:59:22.904Z,18.05
2019-02-27T13:01:16.445Z,17.94
2019-02-27T13:02:15.481Z,17.95
2019-02-27T13:04:08.178Z,17.94
2019-02-27T13:05:08.054Z,17.99
2019-02-27T13:07:00.915Z,18.06
2019-02-27T13:08:00.671Z,18.03
2019-02-27T13:09:53.486Z,17.98
2019-02-27T13:10:53.225Z,18.05
2019-02-27T13:12:45.934Z,18.08
2019-02-27T13:13:45.793Z,18.03
2019-02-27T13:15:41.070Z,18.16
2019-02-27T13:16:38.406Z,18.21
2019-02-27T13:18:32.076Z,18.24
2019-02-27T13:19:30.929Z,18.24
2019-02-27T13:21:23.677Z,18.27
2019-02-27T13:22:26.258Z,18.41
2019-02-27T13:24:16.383Z,18.39
2019-02-27T13:25:16.114Z,18.35
2019-02-27T13:27:09.849Z,18.47
2019-02-27T13:28:08.685Z,18.47
2019-02-27T13:30:08.754Z,18.38
2019-02-27T13:31:01.272Z,18.36
2019-02-27T13:32:54.094Z,18.49
2019-02-27T13:33:53.839Z,18.49
2019-02-27T13:35:46.532Z,18.34
2019-02-27T13:36:46.412Z,18.49
2019-02-27T13:38:39.247Z,18.57
2019-02-27T13:39:38.985Z,18.53
2019-02-27T13:41:31.691Z,18.45
2019-02-27T13:42:31.559Z,18.54
2019-02-27T13:44:24.392Z,18.65
2019-02-27T13:45:24.140Z,18.66
2019-02-27T13:47:16.839Z,18.65
2019-02-27T13:48:16.738Z,18.71
2019-02-27T13:50:09.394Z,18.71
2019-02-27T13:51:09.295Z,18.69
2019-02-27T13:53:02.012Z,18.79
2019-02-27T13:54:01.903Z,18.69
2019-02-27T13:55:54.614Z,18.82
2019-02-27T13:56:54.479Z,18.89
2019-02-27T13:58:47.366Z,18.90
2019-02-27T13:59:47.084Z,19.06
2019-02-27T14:01:39.744Z,18.90
2019-02-27T14:02:39.697Z,18.82
2019-02-27T14:04:32.506Z,18.84
2019-02-27T14:05:35.125Z,18.87
2019-02-27T14:07:24.921Z,18.87
2019-02-27T14:08:24.821Z,18.82
2019-02-27T14:10:20.506Z,18.75
2019-02-27T14:11:17.388Z,18.78
2019-02-27T14:13:10.072Z,18.82
2019-02-27T14:14:09.968Z,18.82
2019-02-27T14:16:02.665Z,18.94
2019-02-27T14:17:02.539Z,19.00
2019-02-27T14:18:55.219Z,19.05
2019-02-27T14:19:55.414Z,19.05
2019-02-27T14:21:47.808Z,19.45
2019-02-27T14:22:47.682Z,19.57
2019-02-27T14:24:40.376Z,19.57
2019-02-27T14:25:40.266Z,19.52
2019-02-27T14:27:32.969Z,19.28
2019-02-27T14:28:32.844Z,19.23
2019-02-27T14:30:25.525Z,19.15
2019-02-27T14:31:25.416Z,19.13
2019-02-27T14:33:19.281Z,19.13
2019-02-27T14:34:17.993Z,19.09
2019-02-27T14:36:10.673Z,19.07
2019-02-27T14:37:10.570Z,18.99
2019-02-27T14:39:03.261Z,18.90
2019-02-27T14:40:04.466Z,18.86
2019-02-27T14:41:56.469Z,18.82
2019-02-27T14:42:55.711Z,18.79
2019-02-27T14:44:48.409Z,18.86
2019-02-27T14:45:48.283Z,18.90
2019-02-27T14:47:40.972Z,18.82
2019-02-27T14:48:40.858Z,18.86
2019-02-27T14:50:34.546Z,18.69
2019-02-27T14:51:33.424Z,18.71
2019-02-27T14:53:26.604Z,18.66
2019-02-27T14:54:29.144Z,18.66
2019-02-27T14:56:19.168Z,18.71
2019-02-27T14:57:19.059Z,18.65
2019-02-27T14:59:11.926Z,18.68
2019-02-27T15:00:11.636Z,18.69
2019-02-27T15:02:04.471Z,18.66
2019-02-27T15:03:04.263Z,18.69
2019-02-27T15:04:57.134Z,18.54
2019-02-27T15:05:56.784Z,18.60
2019-02-27T15:07:49.461Z,18.54
2019-02-27T15:08:57.659Z,18.56
2019-02-27T15:10:42.069Z,18.51
2019-02-27T15:11:41.934Z,18.57
2019-02-27T15:13:34.804Z,18.49
2019-02-27T15:14:34.509Z,18.50
2019-02-27T15:16:27.185Z,18.49
2019-02-27T15:17:27.076Z,18.50
2019-02-27T15:19:21.263Z,18.53
2019-02-27T15:20:21.138Z,18.39
2019-02-27T15:22:13.832Z,18.24
2019-02-27T15:23:13.722Z,18.20
2019-02-27T15:25:08.307Z,18.13
2019-02-27T15:26:06.290Z,18.08
2019-02-27T15:27:59.939Z,18.17
2019-02-27T15:28:58.868Z,18.08
2019-02-27T15:30:51.708Z,17.99
2019-02-27T15:31:52.250Z,18.02
2019-02-27T15:33:44.278Z,18.10
2019-02-27T15:34:45.909Z,18.14
2019-02-27T15:36:36.718Z,18.08
2019-02-27T15:37:37.427Z,18.14
2019-02-27T15:39:29.311Z,18.11
2019-02-27T15:40:30.115Z,18.11
2019-02-27T15:42:21.862Z,18.13
2019-02-27T15:43:21.753Z,18.10
2019-02-27T15:45:15.341Z,18.05
2019-02-27T15:46:14.313Z,17.99
2019-02-27T15:48:07.707Z,18.05
2019-02-27T15:49:06.902Z,18.06
2019-02-27T15:50:59.607Z,17.98
2019-02-27T15:51:59.486Z,18.02
2019-02-27T15:53:52.164Z,17.98
2019-02-27T15:54:52.053Z,17.95
2019-02-27T15:56:45.531Z,17.87
2019-02-27T15:57:44.623Z,17.94
2019-02-27T15:59:41.746Z,17.88
2019-02-27T16:00:37.191Z,17.86
2019-02-27T16:02:29.894Z,17.84
2019-02-27T16:03:29.771Z,17.84
2019-02-27T16:05:22.469Z,17.66
2019-02-27T16:06:22.345Z,17.66
2019-02-27T16:08:15.418Z,17.62
2019-02-27T16:09:15.458Z,17.60
2019-02-27T16:11:07.597Z,17.62
2019-02-27T16:12:07.473Z,17.49
2019-02-27T16:14:00.343Z,17.45
2019-02-27T16:15:00.136Z,17.43
2019-02-27T16:16:54.083Z,17.28
2019-02-27T16:17:52.634Z,17.17
2019-02-27T16:19:45.310Z,17.03
2019-02-27T16:20:47.040Z,16.95
2019-02-27T16:22:37.913Z,17.00
2019-02-27T16:23:38.147Z,16.90
2019-02-27T16:25:30.466Z,16.87
2019-02-27T16:26:30.357Z,16.84
2019-02-27T16:28:23.051Z,16.80
2019-02-27T16:29:23.646Z,16.85
2019-02-27T16:31:15.743Z,16.67
2019-02-27T16:32:15.564Z,16.76
2019-02-27T16:34:08.178Z,16.73
2019-02-27T16:35:08.184Z,16.70
2019-02-27T16:37:00.748Z,16.59
2019-02-27T16:38:00.625Z,16.62
2019-02-27T16:39:55.199Z,16.51
2019-02-27T16:40:53.668Z,16.49
2019-02-27T16:42:46.442Z,16.36
2019-02-27T16:43:48.351Z,16.34
2019-02-27T16:45:39.178Z,16.37
2019-02-27T16:46:43.482Z,16.26
2019-02-27T16:48:34.610Z,16.22
2019-02-27T16:49:31.446Z,16.30
2019-02-27T16:51:24.123Z,16.21
2019-02-27T16:52:24.019Z,16.21
2019-02-27T16:54:16.706Z,15.99
2019-02-27T16:55:16.587Z,16.04
2019-02-27T16:57:09.259Z,15.68
2019-02-27T16:58:09.151Z,15.63
2019-02-27T17:00:01.976Z,15.51
2019-02-27T17:01:01.719Z,15.37
2019-02-27T17:02:56.890Z,15.33
2019-02-27T17:04:00.249Z,15.27
2019-02-27T17:05:49.679Z,15.07
2019-02-27T17:06:49.209Z,15.00
2019-02-27T17:08:40.669Z,14.94
2019-02-27T17:09:41.019Z,14.83
2019-02-27T17:11:33.198Z,14.74
2019-02-27T17:12:32.469Z,14.66
2019-02-27T17:14:25.150Z,14.60
2019-02-27T17:15:25.038Z,14.48
2019-02-27T17:17:18.811Z,14.51
2019-02-27T17:18:17.601Z,14.49
2019-02-27T17:20:12.579Z,14.57
2019-02-27T17:21:10.165Z,14.41
2019-02-27T17:23:06.850Z,14.46
2019-02-27T17:24:02.735Z,14.34
2019-02-27T17:25:55.431Z,14.27
2019-02-27T17:26:55.302Z,14.20
2019-02-27T17:28:48.636Z,14.12
2019-02-27T17:29:47.872Z,14.09
2019-02-27T17:31:48.974Z,13.93
2019-02-27T17:32:40.427Z,13.90
2019-02-27T17:34:33.106Z,13.79
2019-02-27T17:35:33.023Z,13.83
2019-02-27T17:37:26.179Z,13.76
2019-02-27T17:38:26.049Z,13.79
2019-02-27T17:40:18.718Z,13.78
2019-02-27T17:41:18.606Z,13.78
2019-02-27T17:43:11.304Z,13.84
2019-02-27T17:44:11.181Z,13.73
2019-02-27T17:46:04.848Z,13.66
2019-02-27T17:47:04.723Z,13.58
2019-02-27T17:48:57.420Z,13.57
2019-02-27T17:49:58.202Z,13.60
2019-02-27T17:51:50.150Z,13.50
2019-02-27T17:52:49.872Z,13.48
2019-02-27T17:54:43.078Z,13.40
2019-02-27T17:55:43.104Z,13.35
2019-02-27T17:57:35.772Z,13.25
2019-02-27T17:58:35.506Z,13.14
2019-02-27T18:00:28.629Z,13.11
2019-02-27T18:01:28.063Z,12.98
2019-02-27T18:03:20.750Z,12.89
2019-02-27T18:04:20.625Z,12.91
2019-02-27T18:06:13.331Z,12.92
2019-02-27T18:07:13.187Z,12.83
2019-02-27T18:09:05.926Z,12.71
2019-02-27T18:10:05.894Z,12.73
2019-02-27T18:11:59.030Z,12.74
2019-02-27T18:13:01.459Z,12.53
2019-02-27T18:14:51.563Z,12.44
2019-02-27T18:15:53.194Z,12.43
2019-02-27T18:17:44.149Z,12.38
2019-02-27T18:18:44.089Z,12.29
2019-02-27T18:20:36.689Z,12.25
2019-02-27T18:21:36.579Z,12.26
2019-02-27T18:23:29.266Z,12.25
2019-02-27T18:24:33.394Z,12.29
2019-02-27T18:26:21.812Z,12.15
2019-02-27T18:27:24.699Z,12.00
2019-02-27T18:29:14.394Z,12.07
2019-02-27T18:30:15.467Z,12.00
2019-02-27T18:32:06.965Z,12.05
2019-02-27T18:33:06.863Z,12.04
2019-02-27T18:34:59.498Z,11.95
2019-02-27T18:36:04.508Z,11.98
2019-02-27T18:37:54.281Z,11.91
2019-02-27T18:38:51.944Z,11.84
2019-02-27T18:40:44.770Z,11.86
2019-02-27T18:41:45.752Z,11.78
2019-02-27T18:43:37.219Z,11.78
2019-02-27T18:44:38.265Z,11.76
2019-02-27T18:46:29.749Z,11.67
2019-02-27T18:47:32.195Z,11.70
2019-02-27T18:49:22.331Z,11.68
2019-02-27T18:50:24.838Z,11.66
2019-02-27T18:52:21.472Z,11.68
2019-02-27T18:53:15.258Z,11.68
2019-02-27T18:55:08.087Z,11.68
2019-02-27T18:56:07.835Z,11.66
2019-02-27T18:58:00.521Z,11.67
2019-02-27T18:59:00.391Z,11.52
2019-02-27T19:00:53.066Z,11.53
2019-02-27T19:01:52.948Z,11.48
2019-02-27T19:03:45.792Z,11.48
2019-02-27T19:04:45.502Z,11.33
2019-02-27T19:06:38.176Z,11.33
2019-02-27T19:07:39.296Z,11.35
2019-02-27T19:09:32.474Z,11.35
2019-02-27T19:10:30.624Z,11.26
2019-02-27T19:12:28.363Z,11.21
2019-02-27T19:13:23.187Z,11.27
2019-02-27T19:15:16.355Z,11.20
2019-02-27T19:16:17.433Z,11.16
2019-02-27T19:18:08.927Z,11.08
2019-02-27T19:19:08.796Z,11.16
2019-02-27T19:21:01.468Z,11.10
2019-02-27T19:22:01.359Z,10.98
2019-02-27T19:23:54.040Z,10.97
2019-02-27T19:24:53.916Z,10.94
2019-02-27T19:26:46.731Z,10.90
2019-02-27T19:27:46.465Z,10.91
2019-02-27T19:29:39.170Z,10.92
2019-02-27T19:30:41.621Z,10.85
2019-02-27T19:32:32.683Z,10.87
2019-02-27T19:33:35.866Z,10.85
2019-02-27T19:35:25.428Z,10.73
2019-02-27T19:36:25.126Z,10.77
2019-02-27T19:38:17.834Z,10.70
2019-02-27T19:39:18.328Z,10.67
2019-02-27T19:41:10.367Z,10.66
2019-02-27T19:42:12.960Z,10.75
2019-02-27T19:44:02.964Z,10.75
2019-02-27T19:45:04.214Z,10.69
2019-02-27T19:46:55.521Z,10.80
2019-02-27T19:47:55.859Z,10.77
2019-02-27T19:49:48.085Z,10.80
2019-02-27T19:50:47.955Z,10.84
2019-02-27T19:52:40.608Z,10.76
2019-02-27T19:53:42.676Z,10.66
2019-02-27T19:55:33.185Z,10.63
2019-02-27T19:56:35.564Z,10.69
2019-02-27T19:58:25.729Z,10.57
2019-02-27T19:59:25.729Z,10.61
2019-02-27T20:01:18.301Z,10.57
2019-02-27T20:02:21.196Z,10.51
2019-02-27T20:04:12.783Z,10.67
2019-02-27T20:05:10.736Z,10.52
2019-02-27T20:07:03.563Z,10.55
2019-02-27T20:08:03.290Z,10.55
2019-02-27T20:09:56.137Z,10.57
2019-02-27T20:10:55.848Z,10.51
2019-02-27T20:12:52.695Z,10.61
2019-02-27T20:13:48.399Z,10.59
2019-02-27T20:15:42.712Z,10.58
2019-02-27T20:16:40.965Z,10.65
2019-02-27T20:18:33.636Z,10.63
2019-02-27T20:19:33.517Z,10.58
2019-02-27T20:21:26.206Z,10.55
2019-02-27T20:22:26.081Z,10.55
2019-02-27T20:24:18.781Z,10.54
2019-02-27T20:25:18.673Z,10.54
2019-02-27T20:27:11.356Z,10.59
2019-02-27T20:28:11.224Z,10.52
2019-02-27T20:30:04.441Z,10.69
2019-02-27T20:31:04.312Z,10.63
2019-02-27T20:32:59.806Z,10.70
2019-02-27T20:33:56.971Z,10.63
2019-02-27T20:35:52.348Z,10.69
2019-02-27T20:36:49.435Z,10.54
2019-02-27T20:38:42.097Z,10.57
2019-02-27T20:39:41.986Z,10.54
2019-02-27T20:41:39.676Z,10.54
2019-02-27T20:42:34.554Z,10.54
2019-02-27T20:44:27.385Z,10.63
2019-02-27T20:45:27.113Z,10.70
2019-02-27T20:47:21.884Z,10.70
2019-02-27T20:48:19.683Z,10.79
2019-02-27T20:50:12.391Z,10.88
2019-02-27T20:51:12.245Z,10.91
2019-02-27T20:53:04.935Z,11.03
2019-02-27T20:54:04.813Z,10.92
2019-02-27T20:55:57.498Z,10.95
2019-02-27T20:56:57.378Z,11.13
2019-02-27T20:58:52.000Z,11.13
2019-02-27T20:59:49.926Z,10.94
2019-02-27T21:01:46.710Z,11.02
2019-02-27T21:02:42.479Z,11.15
2019-02-27T21:04:35.886Z,11.13
2019-02-27T21:05:35.041Z,11.24
2019-02-27T21:07:27.722Z,11.39
2019-02-27T21:08:27.600Z,11.33
2019-02-27T21:10:21.160Z,11.31
2019-02-27T21:11:20.155Z,11.34
2019-02-27T21:13:15.967Z,11.30
2019-02-27T21:14:12.712Z,11.38
2019-02-27T21:16:09.459Z,11.35
2019-02-27T21:17:05.276Z,11.34
2019-02-27T21:18:57.951Z,11.35
2019-02-27T21:19:57.831Z,11.39
2019-02-27T21:21:53.650Z,11.42
2019-02-27T21:22:50.429Z,11.42
2019-02-27T21:24:43.058Z,11.41
2019-02-27T21:25:42.944Z,11.46
2019-02-27T21:27:35.619Z,11.42
2019-02-27T21:28:35.496Z,11.43
2019-02-27T21:30:28.162Z,11.48
2019-02-27T21:31:28.049Z,11.34
2019-02-27T21:33:20.734Z,11.43
2019-02-27T21:34:20.604Z,11.46
2019-02-27T21:36:13.278Z,11.34
2019-02-27T21:37:13.164Z,11.31
2019-02-27T21:39:05.857Z,11.38
2019-02-27T21:40:05.728Z,11.28
2019-02-27T21:41:58.410Z,11.24
2019-02-27T21:42:58.300Z,11.24
2019-02-27T21:44:50.986Z,11.30
2019-02-27T21:45:50.864Z,11.23
2019-02-27T21:47:43.527Z,11.27
2019-02-27T21:48:43.413Z,11.18
2019-02-27T21:50:39.654Z,11.18
2019-02-27T21:51:36.015Z,11.13
2019-02-27T21:53:29.500Z,11.18
2019-02-27T21:54:28.530Z,11.12
2019-02-27T21:56:21.206Z,11.21
2019-02-27T21:57:22.867Z,11.15
2019-02-27T21:59:14.259Z,11.30
2019-02-27T22:00:14.750Z,11.30
2019-02-27T22:02:06.795Z,11.38
2019-02-27T22:03:06.737Z,11.34
2019-02-27T22:04:59.881Z,11.35
2019-02-27T22:05:59.745Z,11.38
2019-02-27T22:07:52.418Z,11.34
2019-02-27T22:08:52.311Z,11.38
2019-02-27T22:10:44.986Z,11.39
2019-02-27T22:11:44.860Z,11.35
2019-02-27T22:13:37.536Z,11.39
2019-02-27T22:14:37.424Z,11.42
2019-02-27T22:16:30.608Z,11.51
2019-02-27T22:17:29.983Z,11.43
2019-02-27T22:19:22.660Z,11.49
2019-02-27T22:20:25.782Z,11.52
2019-02-27T22:22:15.213Z,11.52
2019-02-27T22:23:15.109Z,11.48
2019-02-27T22:25:07.787Z,11.53
2019-02-27T22:26:07.661Z,11.45
2019-02-27T22:28:00.359Z,11.48
2019-02-27T22:29:00.235Z,11.46
2019-02-27T22:30:52.929Z,11.52
2019-02-27T22:31:52.795Z,11.49
2019-02-27T22:33:45.464Z,11.57
2019-02-27T22:34:45.352Z,11.52
2019-02-27T22:36:38.027Z,11.45
2019-02-27T22:37:37.907Z,11.43
2019-02-27T22:39:31.619Z,11.38
2019-02-27T22:40:30.476Z,11.42
2019-02-27T22:42:23.141Z,11.35
2019-02-27T22:43:23.034Z,11.27
2019-02-27T22:45:15.691Z,11.35
2019-02-27T22:46:16.464Z,11.35
2019-02-27T22:48:08.263Z,11.48
2019-02-27T22:49:08.136Z,11.38
2019-02-27T22:51:00.800Z,11.28
2019-02-27T22:52:00.690Z,11.18
2019-02-27T22:53:53.373Z,11.15
2019-02-27T22:54:53.250Z,11.16
2019-02-27T22:56:50.215Z,11.08
2019-02-27T22:57:45.804Z,11.12
2019-02-27T22:59:38.507Z,11.09
